Metar z połowy godziny Komunikat METAR ze strony awiacja.imgw.pl Metar G30 EPPO METAR EPPO 170830Z 14007KT 110V180 CAVOK 27/15 Q1017 =